CheckWX is a tool to help pilots better visualize weather data.  It is not intended as a substitute for an official pre-flight weather briefing.

18:30:00 UTC

FNKU METAR
Kuito Airport
Kuito, Angola
Current

3 hours ago

FNKU 221600Z 09005KT 9999 SCT020 25/20 Q1018
Observed
Feb-22 @ 16:00 UTC
Wind
  • 090° at 5 KTS
Visibility
10,000+ meters
Flight Rules
VFR
Cloud Levels
  • Scattered at 2,000' AGL
Temperature
25°C / 77°F
Dewpoint
20°C / 68°F
Humidity
74%
Altimeter
30.06" Hg
Pressure
1017.92 hPa
Previous

4 hours ago

FNKU 221500Z 12005KT 9999 SCT017 25/20 Q1019
Observed
Feb-22 @ 15:00 UTC
Wind
  • 120° at 5 KTS
Visibility
10,000+ meters
Flight Rules
VFR
Cloud Levels
  • Scattered at 1,700' AGL
Temperature
25°C / 77°F
Dewpoint
20°C / 68°F
Humidity
74%
Altimeter
30.09" Hg
Pressure
1018.92 hPa
Previous

5 hours ago

FNKU 221400Z 12005KT 9999 FEW015 OVC060 20/11 Q1020
Observed
Feb-22 @ 14:00 UTC
Wind
  • 120° at 5 KTS
Visibility
10,000+ meters
Flight Rules
VFR
Cloud Levels
  • Few at 1,500' AGL
  • Overcast at 6,000' AGL
Temperature
20°C / 68°F
Dewpoint
11°C / 52°F
Humidity
56%
Altimeter
30.12" Hg
Pressure
1019.92 hPa